sensor_id;sensor_type;location;lat;lon;timestamp;pressure;altitude;pressure_sealevel;temperature;humidity
75013;BME280;63567;49.956;20.130;2024-01-27T00:00:22;97101.69;;;5.70;98.34
75013;BME280;63567;49.956;20.130;2024-01-27T00:02:47;97111.66;;;5.66;98.03
75013;BME280;63567;49.956;20.130;2024-01-27T00:05:12;97122.09;;;5.66;97.68
75013;BME280;63567;49.956;20.130;2024-01-27T00:07:38;97129.75;;;5.68;96.77
75013;BME280;63567;49.956;20.130;2024-01-27T00:10:03;97145.75;;;5.65;96.85
75013;BME280;63567;49.956;20.130;2024-01-27T00:12:29;97162.72;;;5.61;96.73
75013;BME280;63567;49.956;20.130;2024-01-27T00:14:54;97172.22;;;5.62;96.60
75013;BME280;63567;49.956;20.130;2024-01-27T00:17:20;97144.56;;;5.59;96.47
75013;BME280;63567;49.956;20.130;2024-01-27T00:19:49;97165.66;;;5.58;96.13
75013;BME280;63567;49.956;20.130;2024-01-27T00:22:15;97171.84;;;5.56;94.56
75013;BME280;63567;49.956;20.130;2024-01-27T00:24:42;97195.00;;;5.51;94.96
75013;BME280;63567;49.956;20.130;2024-01-27T00:27:08;97190.69;;;5.42;95.44
75013;BME280;63567;49.956;20.130;2024-01-27T00:29:33;97197.41;;;5.45;94.71
75013;BME280;63567;49.956;20.130;2024-01-27T00:31:58;97203.09;;;5.40;94.22
75013;BME280;63567;49.956;20.130;2024-01-27T00:34:24;97217.25;;;5.38;94.27
75013;BME280;63567;49.956;20.130;2024-01-27T00:36:50;97228.81;;;5.35;93.08
75013;BME280;63567;49.956;20.130;2024-01-27T00:39:16;97230.94;;;5.31;92.79
75013;BME280;63567;49.956;20.130;2024-01-27T00:41:41;97221.28;;;5.32;90.92
75013;BME280;63567;49.956;20.130;2024-01-27T00:44:08;97243.69;;;5.17;91.08
75013;BME280;63567;49.956;20.130;2024-01-27T00:46:33;97254.03;;;5.08;90.94
75013;BME280;63567;49.956;20.130;2024-01-27T00:48:58;97258.47;;;5.08;89.88
75013;BME280;63567;49.956;20.130;2024-01-27T00:51:24;97271.28;;;5.01;89.64
75013;BME280;63567;49.956;20.130;2024-01-27T00:53:49;97262.78;;;4.99;88.03
75013;BME280;63567;49.956;20.130;2024-01-27T00:56:14;97267.91;;;4.91;87.28
75013;BME280;63567;49.956;20.130;2024-01-27T00:58:40;97275.19;;;4.87;87.86
75013;BME280;63567;49.956;20.130;2024-01-27T01:01:05;97278.09;;;4.84;87.70
75013;BME280;63567;49.956;20.130;2024-01-27T01:03:31;97296.66;;;4.81;87.48
75013;BME280;63567;49.956;20.130;2024-01-27T01:05:56;97299.69;;;4.77;87.58
75013;BME280;63567;49.956;20.130;2024-01-27T01:08:22;97317.28;;;4.74;88.35
75013;BME280;63567;49.956;20.130;2024-01-27T01:10:47;97315.28;;;4.68;89.01
75013;BME280;63567;49.956;20.130;2024-01-27T01:13:13;97325.56;;;4.70;90.23
75013;BME280;63567;49.956;20.130;2024-01-27T01:15:38;97319.81;;;4.66;90.72
75013;BME280;63567;49.956;20.130;2024-01-27T01:18:04;97318.16;;;4.65;90.83
75013;BME280;63567;49.956;20.130;2024-01-27T01:20:30;97317.78;;;4.60;90.91
75013;BME280;63567;49.956;20.130;2024-01-27T01:22:55;97327.22;;;4.61;91.53
75013;BME280;63567;49.956;20.130;2024-01-27T01:25:21;97345.50;;;4.61;91.53
75013;BME280;63567;49.956;20.130;2024-01-27T01:27:46;97344.00;;;4.59;90.77
75013;BME280;63567;49.956;20.130;2024-01-27T01:30:13;97354.75;;;4.56;91.05
75013;BME280;63567;49.956;20.130;2024-01-27T01:32:38;97359.41;;;4.52;91.16
75013;BME280;63567;49.956;20.130;2024-01-27T01:35:04;97365.72;;;4.49;91.14
75013;BME280;63567;49.956;20.130;2024-01-27T01:37:30;97371.75;;;4.50;91.60
75013;BME280;63567;49.956;20.130;2024-01-27T01:39:55;97386.59;;;4.49;91.55
75013;BME280;63567;49.956;20.130;2024-01-27T01:42:20;97374.94;;;4.44;91.77
75013;BME280;63567;49.956;20.130;2024-01-27T01:44:49;97378.22;;;4.46;92.43
75013;BME280;63567;49.956;20.130;2024-01-27T01:47:15;97373.00;;;4.46;91.56
75013;BME280;63567;49.956;20.130;2024-01-27T01:49:40;97373.44;;;4.41;91.75
75013;BME280;63567;49.956;20.130;2024-01-27T01:52:06;97375.06;;;4.42;91.92
75013;BME280;63567;49.956;20.130;2024-01-27T01:54:32;97389.63;;;4.45;91.89
75013;BME280;63567;49.956;20.130;2024-01-27T01:56:58;97381.25;;;4.41;92.04
75013;BME280;63567;49.956;20.130;2024-01-27T01:59:24;97390.59;;;4.44;91.77
75013;BME280;63567;49.956;20.130;2024-01-27T02:01:49;97377.03;;;4.40;91.38
75013;BME280;63567;49.956;20.130;2024-01-27T02:04:15;97380.44;;;4.41;91.31
75013;BME280;63567;49.956;20.130;2024-01-27T02:06:40;97391.00;;;4.39;91.18
75013;BME280;63567;49.956;20.130;2024-01-27T02:09:06;97384.16;;;4.38;90.91
75013;BME280;63567;49.956;20.130;2024-01-27T02:11:31;97388.00;;;4.34;90.95
75013;BME280;63567;49.956;20.130;2024-01-27T02:13:57;97385.41;;;4.34;89.95
75013;BME280;63567;49.956;20.130;2024-01-27T02:16:22;97383.88;;;4.31;90.42
75013;BME280;63567;49.956;20.130;2024-01-27T02:18:47;97391.84;;;4.30;90.29
75013;BME280;63567;49.956;20.130;2024-01-27T02:21:13;97399.25;;;4.35;88.93
75013;BME280;63567;49.956;20.130;2024-01-27T02:23:38;97406.69;;;4.29;89.12
75013;BME280;63567;49.956;20.130;2024-01-27T02:26:04;97402.72;;;4.25;89.87
75013;BME280;63567;49.956;20.130;2024-01-27T02:28:29;97405.44;;;4.24;90.20
75013;BME280;63567;49.956;20.130;2024-01-27T02:30:57;97412.59;;;4.22;90.28
75013;BME280;63567;49.956;20.130;2024-01-27T02:33:23;97416.28;;;4.19;91.17
75013;BME280;63567;49.956;20.130;2024-01-27T02:35:48;97415.47;;;4.19;90.12
75013;BME280;63567;49.956;20.130;2024-01-27T02:38:13;97420.69;;;4.19;90.39
75013;BME280;63567;49.956;20.130;2024-01-27T02:40:39;97410.66;;;4.14;90.47
75013;BME280;63567;49.956;20.130;2024-01-27T02:43:04;97418.34;;;4.16;90.16
75013;BME280;63567;49.956;20.130;2024-01-27T02:45:29;97410.00;;;4.12;90.39
75013;BME280;63567;49.956;20.130;2024-01-27T02:47:55;97419.31;;;4.15;90.06
75013;BME280;63567;49.956;20.130;2024-01-27T02:50:20;97427.28;;;4.13;90.12
75013;BME280;63567;49.956;20.130;2024-01-27T02:52:45;97423.56;;;4.16;90.03
75013;BME280;63567;49.956;20.130;2024-01-27T02:55:11;97417.81;;;4.12;89.51
75013;BME280;63567;49.956;20.130;2024-01-27T02:57:37;97427.41;;;4.11;89.49
75013;BME280;63567;49.956;20.130;2024-01-27T03:00:03;97428.50;;;4.09;90.40
75013;BME280;63567;49.956;20.130;2024-01-27T03:02:30;97417.25;;;4.08;90.18
75013;BME280;63567;49.956;20.130;2024-01-27T03:04:55;97431.09;;;4.09;90.50
75013;BME280;63567;49.956;20.130;2024-01-27T03:07:20;97427.56;;;4.10;89.67
75013;BME280;63567;49.956;20.130;2024-01-27T03:09:46;97437.97;;;4.10;89.88
75013;BME280;63567;49.956;20.130;2024-01-27T03:12:11;97435.75;;;4.05;89.87
75013;BME280;63567;49.956;20.130;2024-01-27T03:14:37;97447.84;;;4.06;89.90
75013;BME280;63567;49.956;20.130;2024-01-27T03:17:03;97436.59;;;4.06;90.32
75013;BME280;63567;49.956;20.130;2024-01-27T03:19:28;97438.25;;;4.07;90.29
75013;BME280;63567;49.956;20.130;2024-01-27T03:21:54;97459.09;;;4.07;89.92
75013;BME280;63567;49.956;20.130;2024-01-27T03:24:19;97454.69;;;4.07;88.93
75013;BME280;63567;49.956;20.130;2024-01-27T03:26:44;97458.53;;;4.03;88.90
75013;BME280;63567;49.956;20.130;2024-01-27T03:29:10;97450.19;;;4.00;88.78
75013;BME280;63567;49.956;20.130;2024-01-27T03:31:35;97446.75;;;3.99;88.48
75013;BME280;63567;49.956;20.130;2024-01-27T03:34:01;97450.19;;;4.00;88.92
75013;BME280;63567;49.956;20.130;2024-01-27T03:36:28;97440.00;;;3.97;88.64
75013;BME280;63567;49.956;20.130;2024-01-27T03:38:55;97440.31;;;3.94;88.42
75013;BME280;63567;49.956;20.130;2024-01-27T03:41:21;97446.19;;;3.96;88.07
75013;BME280;63567;49.956;20.130;2024-01-27T03:43:46;97444.53;;;3.95;87.74
75013;BME280;63567;49.956;20.130;2024-01-27T03:46:11;97448.94;;;3.94;87.87
75013;BME280;63567;49.956;20.130;2024-01-27T03:48:37;97431.78;;;3.91;87.46
75013;BME280;63567;49.956;20.130;2024-01-27T03:51:03;97446.31;;;3.94;86.88
75013;BME280;63567;49.956;20.130;2024-01-27T03:53:28;97448.94;;;3.94;87.29
75013;BME280;63567;49.956;20.130;2024-01-27T03:55:53;97448.41;;;3.90;86.20
75013;BME280;63567;49.956;20.130;2024-01-27T03:58:19;97460.19;;;3.95;86.06
75013;BME280;63567;49.956;20.130;2024-01-27T04:00:44;97441.66;;;3.88;85.92
75013;BME280;63567;49.956;20.130;2024-01-27T04:03:10;97451.25;;;3.87;85.96
75013;BME280;63567;49.956;20.130;2024-01-27T04:05:35;97448.25;;;3.82;85.89
75013;BME280;63567;49.956;20.130;2024-01-27T04:08:01;97449.19;;;3.81;85.80
75013;BME280;63567;49.956;20.130;2024-01-27T04:10:27;97444.38;;;3.77;84.95
75013;BME280;63567;49.956;20.130;2024-01-27T04:12:52;97466.06;;;3.77;85.13
75013;BME280;63567;49.956;20.130;2024-01-27T04:15:18;97460.72;;;3.79;84.85
75013;BME280;63567;49.956;20.130;2024-01-27T04:17:43;97474.84;;;3.76;84.57
75013;BME280;63567;49.956;20.130;2024-01-27T04:20:09;97472.25;;;3.76;84.36
75013;BME280;63567;49.956;20.130;2024-01-27T04:22:35;97498.97;;;3.78;84.32
75013;BME280;63567;49.956;20.130;2024-01-27T04:25:01;97496.25;;;3.80;84.43
75013;BME280;63567;49.956;20.130;2024-01-27T04:27:27;97481.44;;;3.80;84.63
75013;BME280;63567;49.956;20.130;2024-01-27T04:29:52;97477.31;;;3.78;85.09
75013;BME280;63567;49.956;20.130;2024-01-27T04:32:18;97466.75;;;3.79;84.85
75013;BME280;63567;49.956;20.130;2024-01-27T04:34:43;97458.94;;;3.79;85.36
75013;BME280;63567;49.956;20.130;2024-01-27T04:37:09;97465.94;;;3.79;85.70
75013;BME280;63567;49.956;20.130;2024-01-27T04:39:34;97469.91;;;3.83;84.98
75013;BME280;63567;49.956;20.130;2024-01-27T04:41:59;97473.75;;;3.79;84.58
75013;BME280;63567;49.956;20.130;2024-01-27T04:44:25;97468.66;;;3.77;84.94
75013;BME280;63567;49.956;20.130;2024-01-27T04:46:50;97483.06;;;3.81;84.22
75013;BME280;63567;49.956;20.130;2024-01-27T04:49:16;97480.63;;;3.80;84.10
75013;BME280;63567;49.956;20.130;2024-01-27T04:51:41;97492.38;;;3.74;84.52
75013;BME280;63567;49.956;20.130;2024-01-27T04:54:08;97498.56;;;3.73;84.95
75013;BME280;63567;49.956;20.130;2024-01-27T04:56:33;97491.41;;;3.75;86.10
75013;BME280;63567;49.956;20.130;2024-01-27T04:58:58;97490.75;;;3.73;85.88
75013;BME280;63567;49.956;20.130;2024-01-27T05:01:24;97491.41;;;3.75;86.73
75013;BME280;63567;49.956;20.130;2024-01-27T05:03:49;97494.88;;;3.76;87.47
75013;BME280;63567;49.956;20.130;2024-01-27T05:06:15;97500.47;;;3.71;87.36
75013;BME280;63567;49.956;20.130;2024-01-27T05:08:40;97494.59;;;3.69;88.43
75013;BME280;63567;49.956;20.130;2024-01-27T05:11:06;97484.28;;;3.67;88.03
75013;BME280;63567;49.956;20.130;2024-01-27T05:13:31;97498.41;;;3.65;87.93
75013;BME280;63567;49.956;20.130;2024-01-27T05:15:57;97490.59;;;3.65;88.38
75013;BME280;63567;49.956;20.130;2024-01-27T05:18:22;97487.41;;;3.61;89.08
75013;BME280;63567;49.956;20.130;2024-01-27T05:20:47;97503.31;;;3.58;89.29
75013;BME280;63567;49.956;20.130;2024-01-27T05:23:13;97496.31;;;3.59;88.91
75013;BME280;63567;49.956;20.130;2024-01-27T05:25:38;97510.16;;;3.59;89.45
75013;BME280;63567;49.956;20.130;2024-01-27T05:28:04;97503.16;;;3.60;89.77
75013;BME280;63567;49.956;20.130;2024-01-27T05:30:30;97494.41;;;3.61;88.76
75013;BME280;63567;49.956;20.130;2024-01-27T05:32:55;97519.91;;;3.57;88.91
75013;BME280;63567;49.956;20.130;2024-01-27T05:35:21;97530.47;;;3.56;89.50
75013;BME280;63567;49.956;20.130;2024-01-27T05:37:46;97524.13;;;3.48;89.15
75013;BME280;63567;49.956;20.130;2024-01-27T05:40:12;97522.47;;;3.47;88.92
75013;BME280;63567;49.956;20.130;2024-01-27T05:42:38;97536.88;;;3.52;89.26
75013;BME280;63567;49.956;20.130;2024-01-27T05:45:07;97530.28;;;3.47;89.09
75013;BME280;63567;49.956;20.130;2024-01-27T05:47:33;97531.00;;;3.49;89.01
75013;BME280;63567;49.956;20.130;2024-01-27T05:49:59;97540.00;;;3.45;89.24
75013;BME280;63567;49.956;20.130;2024-01-27T05:52:24;97529.72;;;3.44;88.70
75013;BME280;63567;49.956;20.130;2024-01-27T05:54:51;97527.13;;;3.44;89.24
75013;BME280;63567;49.956;20.130;2024-01-27T05:57:17;97522.47;;;3.47;88.13
75013;BME280;63567;49.956;20.130;2024-01-27T05:59:42;97525.31;;;3.44;88.25
75013;BME280;63567;49.956;20.130;2024-01-27T06:02:07;97514.91;;;3.44;88.72
75013;BME280;63567;49.956;20.130;2024-01-27T06:04:33;97526.31;;;3.43;88.44
75013;BME280;63567;49.956;20.130;2024-01-27T06:06:59;97527.94;;;3.44;88.28
75013;BME280;63567;49.956;20.130;2024-01-27T06:09:25;97522.19;;;3.50;87.88
75013;BME280;63567;49.956;20.130;2024-01-27T06:11:50;97521.78;;;3.45;88.17
75013;BME280;63567;49.956;20.130;2024-01-27T06:14:16;97533.03;;;3.46;87.66
75013;BME280;63567;49.956;20.130;2024-01-27T06:16:41;97522.72;;;3.44;87.73
75013;BME280;63567;49.956;20.130;2024-01-27T06:19:06;97542.63;;;3.45;88.06
75013;BME280;63567;49.956;20.130;2024-01-27T06:21:32;97540.84;;;3.46;88.30
75013;BME280;63567;49.956;20.130;2024-01-27T06:23:57;97530.69;;;3.43;87.88
75013;BME280;63567;49.956;20.130;2024-01-27T06:26:23;97550.03;;;3.50;88.43
75013;BME280;63567;49.956;20.130;2024-01-27T06:28:48;97550.28;;;3.47;87.52
75013;BME280;63567;49.956;20.130;2024-01-27T06:31:15;97563.31;;;3.47;87.02
75013;BME280;63567;49.956;20.130;2024-01-27T06:33:41;97566.06;;;3.45;87.85
75013;BME280;63567;49.956;20.130;2024-01-27T06:36:06;97566.31;;;3.42;87.62
75013;BME280;63567;49.956;20.130;2024-01-27T06:38:35;97573.06;;;3.45;87.53
75013;BME280;63567;49.956;20.130;2024-01-27T06:41:00;97566.88;;;3.46;87.05
75013;BME280;63567;49.956;20.130;2024-01-27T06:43:26;97560.16;;;3.43;87.57
75013;BME280;63567;49.956;20.130;2024-01-27T06:45:51;97564.28;;;3.46;86.59
75013;BME280;63567;49.956;20.130;2024-01-27T06:48:16;97574.09;;;3.42;86.82
75013;BME280;63567;49.956;20.130;2024-01-27T06:50:42;97560.41;;;3.40;86.98
75013;BME280;63567;49.956;20.130;2024-01-27T06:53:07;97578.94;;;3.47;86.75
75013;BME280;63567;49.956;20.130;2024-01-27T06:55:35;97578.09;;;3.46;86.25
75013;BME280;63567;49.956;20.130;2024-01-27T06:58:00;97580.00;;;3.44;85.76
75013;BME280;63567;49.956;20.130;2024-01-27T07:00:26;97578.38;;;3.43;86.28
75013;BME280;63567;49.956;20.130;2024-01-27T07:02:52;97583.31;;;3.46;86.36
75013;BME280;63567;49.956;20.130;2024-01-27T07:05:17;97589.50;;;3.45;85.49
75013;BME280;63567;49.956;20.130;2024-01-27T07:07:43;97597.72;;;3.50;85.79
75013;BME280;63567;49.956;20.130;2024-01-27T07:10:08;97594.56;;;3.47;85.13
75013;BME280;63567;49.956;20.130;2024-01-27T07:12:34;97592.91;;;3.46;85.86
75013;BME280;63567;49.956;20.130;2024-01-27T07:14:59;97597.31;;;3.45;85.07
75013;BME280;63567;49.956;20.130;2024-01-27T07:17:29;97589.50;;;3.45;84.93
75013;BME280;63567;49.956;20.130;2024-01-27T07:19:54;97589.50;;;3.45;85.92
75013;BME280;63567;49.956;20.130;2024-01-27T07:22:20;97600.72;;;3.46;85.77
75013;BME280;63567;49.956;20.130;2024-01-27T07:24:45;97584.28;;;3.45;85.34
75013;BME280;63567;49.956;20.130;2024-01-27T07:27:14;97598.81;;;3.48;85.33
75013;BME280;63567;49.956;20.130;2024-01-27T07:29:40;97594.03;;;3.53;85.51
75013;BME280;63567;49.956;20.130;2024-01-27T07:32:05;97593.63;;;3.48;85.37
75013;BME280;63567;49.956;20.130;2024-01-27T07:34:33;97602.13;;;3.50;85.04
75013;BME280;63567;49.956;20.130;2024-01-27T07:36:58;97588.97;;;3.52;85.16
75013;BME280;63567;49.956;20.130;2024-01-27T07:39:23;97599.94;;;3.55;85.45
75013;BME280;63567;49.956;20.130;2024-01-27T07:41:49;97602.56;;;3.55;85.17
75013;BME280;63567;49.956;20.130;2024-01-27T07:44:14;97602.44;;;3.57;84.73
75013;BME280;63567;49.956;20.130;2024-01-27T07:46:41;97599.00;;;3.56;84.63
75013;BME280;63567;49.956;20.130;2024-01-27T07:49:07;97591.03;;;3.58;85.13
75013;BME280;63567;49.956;20.130;2024-01-27T07:51:33;97593.41;;;3.61;84.92
75013;BME280;63567;49.956;20.130;2024-01-27T07:54:00;97581.72;;;3.55;84.44
75013;BME280;63567;49.956;20.130;2024-01-27T07:56:26;97592.19;;;3.65;84.58
75013;BME280;63567;49.956;20.130;2024-01-27T07:58:51;97586.28;;;3.63;84.02
75013;BME280;63567;49.956;20.130;2024-01-27T08:01:17;97597.53;;;3.63;83.73
75013;BME280;63567;49.956;20.130;2024-01-27T08:03:43;97571.75;;;3.60;83.28
75013;BME280;63567;49.956;20.130;2024-01-27T08:06:15;97593.41;;;3.61;83.61
75013;BME280;63567;49.956;20.130;2024-01-27T08:08:41;97581.31;;;3.60;83.83
75013;BME280;63567;49.956;20.130;2024-01-27T08:11:07;97573.38;;;3.61;83.27
75013;BME280;63567;49.956;20.130;2024-01-27T08:13:32;97584.78;;;3.60;83.44
75013;BME280;63567;49.956;20.130;2024-01-27T08:15:57;97588.88;;;3.63;82.67
75013;BME280;63567;49.956;20.130;2024-01-27T08:18:23;97586.16;;;3.64;82.45
75013;BME280;63567;49.956;20.130;2024-01-27T08:20:48;97585.06;;;3.67;82.19
75013;BME280;63567;49.956;20.130;2024-01-27T08:23:14;97598.59;;;3.61;82.75
75013;BME280;63567;49.956;20.130;2024-01-27T08:25:39;97601.63;;;3.66;82.75
75013;BME280;63567;49.956;20.130;2024-01-27T08:28:05;97595.59;;;3.65;82.78
75013;BME280;63567;49.956;20.130;2024-01-27T08:30:30;97605.91;;;3.67;83.17
75013;BME280;63567;49.956;20.130;2024-01-27T08:32:56;97598.09;;;3.67;82.05
75013;BME280;63567;49.956;20.130;2024-01-27T08:35:21;97599.72;;;3.68;82.69
75013;BME280;63567;49.956;20.130;2024-01-27T08:37:46;97626.34;;;3.72;82.15
75013;BME280;63567;49.956;20.130;2024-01-27T08:40:12;97621.69;;;3.75;82.03
75013;BME280;63567;49.956;20.130;2024-01-27T08:42:38;97608.00;;;3.73;82.16
75013;BME280;63567;49.956;20.130;2024-01-27T08:45:05;97612.38;;;3.73;81.82
75013;BME280;63567;49.956;20.130;2024-01-27T08:47:31;97609.63;;;3.74;81.90
75013;BME280;63567;49.956;20.130;2024-01-27T08:49:56;97602.63;;;3.75;81.93
75013;BME280;63567;49.956;20.130;2024-01-27T08:52:22;97608.28;;;3.80;82.12
75013;BME280;63567;49.956;20.130;2024-01-27T08:54:47;97603.91;;;3.80;81.85
75013;BME280;63567;49.956;20.130;2024-01-27T08:57:13;97610.34;;;3.76;81.65
75013;BME280;63567;49.956;20.130;2024-01-27T08:59:38;97609.81;;;3.82;81.66
75013;BME280;63567;49.956;20.130;2024-01-27T09:02:03;97607.22;;;3.82;81.49
75013;BME280;63567;49.956;20.130;2024-01-27T09:04:30;97603.38;;;3.86;81.36
75013;BME280;63567;49.956;20.130;2024-01-27T09:06:55;97615.72;;;3.84;81.62
75013;BME280;63567;49.956;20.130;2024-01-27T09:09:20;97619.03;;;3.86;81.16
75013;BME280;63567;49.956;20.130;2024-01-27T09:11:46;97621.88;;;3.83;80.95
75013;BME280;63567;49.956;20.130;2024-01-27T09:14:11;97617.34;;;3.85;80.36
75013;BME280;63567;49.956;20.130;2024-01-27T09:16:37;97624.75;;;3.80;79.84
75013;BME280;63567;49.956;20.130;2024-01-27T09:19:03;97619.09;;;3.75;80.78
75013;BME280;63567;49.956;20.130;2024-01-27T09:21:28;97623.34;;;3.76;81.40
75013;BME280;63567;49.956;20.130;2024-01-27T09:23:55;97624.75;;;3.80;81.40
75013;BME280;63567;49.956;20.130;2024-01-27T09:26:21;97643.00;;;3.80;81.44
75013;BME280;63567;49.956;20.130;2024-01-27T09:28:48;97629.00;;;3.81;81.22
75013;BME280;63567;49.956;20.130;2024-01-27T09:31:22;97639.56;;;3.80;81.69
75013;BME280;63567;49.956;20.130;2024-01-27T09:33:52;97642.28;;;3.78;82.32
75013;BME280;63567;49.956;20.130;2024-01-27T09:36:18;97654.09;;;3.82;82.50
75013;BME280;63567;49.956;20.130;2024-01-27T09:38:44;97659.44;;;3.81;82.35
75013;BME280;63567;49.956;20.130;2024-01-27T09:41:12;97665.47;;;3.81;82.70
75013;BME280;63567;49.956;20.130;2024-01-27T09:43:45;97657.22;;;3.76;83.09
75013;BME280;63567;49.956;20.130;2024-01-27T09:46:11;97661.47;;;3.77;83.09
75013;BME280;63567;49.956;20.130;2024-01-27T09:48:37;97670.25;;;3.76;83.79
75013;BME280;63567;49.956;20.130;2024-01-27T09:51:04;97660.94;;;3.74;84.11
75013;BME280;63567;49.956;20.130;2024-01-27T09:53:30;97662.84;;;3.72;83.98
75013;BME280;63567;49.956;20.130;2024-01-27T09:55:58;97660.09;;;3.73;84.26
75013;BME280;63567;49.956;20.130;2024-01-27T09:58:25;97654.31;;;3.69;85.01
75013;BME280;63567;49.956;20.130;2024-01-27T10:00:57;97658.13;;;3.65;85.27
75013;BME280;63567;49.956;20.130;2024-01-27T10:03:24;97643.59;;;3.63;85.20
75013;BME280;63567;49.956;20.130;2024-01-27T10:05:52;97638.50;;;3.61;85.82
75013;BME280;63567;49.956;20.130;2024-01-27T10:08:18;97632.88;;;3.56;86.10
75013;BME280;63567;49.956;20.130;2024-01-27T10:10:43;97647.28;;;3.60;86.42
75013;BME280;63567;49.956;20.130;2024-01-27T10:13:10;97648.50;;;3.56;86.62
75013;BME280;63567;49.956;20.130;2024-01-27T10:15:38;97635.97;;;3.50;86.86
75013;BME280;63567;49.956;20.130;2024-01-27T10:18:07;97632.25;;;3.43;86.92
75013;BME280;63567;49.956;20.130;2024-01-27T10:20:33;97624.56;;;3.41;87.53
75013;BME280;63567;49.956;20.130;2024-01-27T10:23:09;97630.97;;;3.37;87.50
75013;BME280;63567;49.956;20.130;2024-01-27T10:25:40;97635.59;;;3.34;87.87
75013;BME280;63567;49.956;20.130;2024-01-27T10:28:07;97629.56;;;3.33;88.28
75013;BME280;63567;49.956;20.130;2024-01-27T10:30:35;97624.63;;;3.30;88.35
75013;BME280;63567;49.956;20.130;2024-01-27T10:33:01;97634.47;;;3.26;88.26
75013;BME280;63567;49.956;20.130;2024-01-27T10:35:26;97631.28;;;3.23;87.94
75013;BME280;63567;49.956;20.130;2024-01-27T10:37:53;97638.53;;;3.19;88.51
75013;BME280;63567;49.956;20.130;2024-01-27T10:40:18;97652.63;;;3.17;88.51
75013;BME280;63567;49.956;20.130;2024-01-27T10:42:44;97637.25;;;3.14;88.71
75013;BME280;63567;49.956;20.130;2024-01-27T10:45:11;97636.44;;;3.13;88.53
75013;BME280;63567;49.956;20.130;2024-01-27T10:47:39;97634.22;;;3.08;88.71
75013;BME280;63567;49.956;20.130;2024-01-27T10:50:08;97634.44;;;3.05;88.71
75013;BME280;63567;49.956;20.130;2024-01-27T10:52:38;97640.50;;;3.06;90.02
75013;BME280;63567;49.956;20.130;2024-01-27T10:55:05;97638.03;;;3.04;88.87
75013;BME280;63567;49.956;20.130;2024-01-27T10:57:34;97627.41;;;2.96;89.75
75013;BME280;63567;49.956;20.130;2024-01-27T11:00:03;97641.25;;;2.97;90.02
75013;BME280;63567;49.956;20.130;2024-01-27T11:02:34;97649.03;;;2.97;89.62
75013;BME280;63567;49.956;20.130;2024-01-27T11:05:02;97659.34;;;2.98;89.79
75013;BME280;63567;49.956;20.130;2024-01-27T11:07:33;97649.03;;;2.97;90.53
75013;BME280;63567;49.956;20.130;2024-01-27T11:09:59;97651.91;;;2.94;90.23
75013;BME280;63567;49.956;20.130;2024-01-27T11:12:25;97651.91;;;2.94;90.57
75013;BME280;63567;49.956;20.130;2024-01-27T11:14:51;97655.13;;;2.86;90.88
75013;BME280;63567;49.956;20.130;2024-01-27T11:17:18;97655.00;;;2.87;91.35
75013;BME280;63567;49.956;20.130;2024-01-27T11:19:46;97655.97;;;2.86;91.42
75013;BME280;63567;49.956;20.130;2024-01-27T11:22:28;97657.88;;;2.84;91.17
75013;BME280;63567;49.956;20.130;2024-01-27T11:25:15;97665.19;;;2.79;91.16
75013;BME280;63567;49.956;20.130;2024-01-27T11:27:40;97657.66;;;2.76;91.64
75013;BME280;63567;49.956;20.130;2024-01-27T11:30:24;97660.13;;;2.78;91.76
75013;BME280;63567;49.956;20.130;2024-01-27T11:32:50;97653.97;;;2.79;92.06
75013;BME280;63567;49.956;20.130;2024-01-27T11:35:17;97657.66;;;2.76;92.02
75013;BME280;63567;49.956;20.130;2024-01-27T11:37:43;97655.28;;;2.73;92.00
75013;BME280;63567;49.956;20.130;2024-01-27T11:40:08;97659.88;;;2.81;92.19
75013;BME280;63567;49.956;20.130;2024-01-27T11:42:34;97664.81;;;2.84;92.75
75013;BME280;63567;49.956;20.130;2024-01-27T11:45:00;97665.66;;;2.84;92.21
75013;BME280;63567;49.956;20.130;2024-01-27T11:47:27;97656.31;;;2.82;92.88
75013;BME280;63567;49.956;20.130;2024-01-27T11:49:55;97671.81;;;2.83;92.85
75013;BME280;63567;49.956;20.130;2024-01-27T11:52:22;97657.59;;;2.87;93.18
75013;BME280;63567;49.956;20.130;2024-01-27T11:54:58;97662.22;;;2.84;92.96
75013;BME280;63567;49.956;20.130;2024-01-27T11:57:24;97662.38;;;2.82;93.05
75013;BME280;63567;49.956;20.130;2024-01-27T11:59:50;97664.81;;;2.84;93.26
75013;BME280;63567;49.956;20.130;2024-01-27T12:02:16;97672.63;;;2.84;93.99
75013;BME280;63567;49.956;20.130;2024-01-27T12:04:42;97673.47;;;2.84;93.90
75013;BME280;63567;49.956;20.130;2024-01-27T12:07:07;97671.00;;;2.83;94.00
75013;BME280;63567;49.956;20.130;2024-01-27T12:09:36;97671.69;;;2.85;94.52
75013;BME280;63567;49.956;20.130;2024-01-27T12:12:02;97671.31;;;2.90;94.20
75013;BME280;63567;49.956;20.130;2024-01-27T12:14:41;97679.25;;;2.88;93.64
75013;BME280;63567;49.956;20.130;2024-01-27T12:17:10;97682.53;;;2.90;93.38
75013;BME280;63567;49.956;20.130;2024-01-27T12:19:38;97671.44;;;2.88;93.38
75013;BME280;63567;49.956;20.130;2024-01-27T12:22:21;97700.06;;;2.88;93.25
75013;BME280;63567;49.956;20.130;2024-01-27T12:24:47;97705.25;;;2.88;93.29
75013;BME280;63567;49.956;20.130;2024-01-27T12:27:12;97694.03;;;2.87;93.23
75013;BME280;63567;49.956;20.130;2024-01-27T12:29:40;97703.63;;;2.87;93.72
75013;BME280;63567;49.956;20.130;2024-01-27T12:32:06;97706.09;;;2.88;93.91
75013;BME280;63567;49.956;20.130;2024-01-27T12:34:32;97715.94;;;2.85;93.50
75013;BME280;63567;49.956;20.130;2024-01-27T12:36:57;97705.41;;;2.86;93.56
75013;BME280;63567;49.956;20.130;2024-01-27T12:39:23;97706.66;;;2.92;94.32
75013;BME280;63567;49.956;20.130;2024-01-27T12:41:48;97707.63;;;2.91;94.14
75013;BME280;63567;49.956;20.130;2024-01-27T12:44:14;97717.91;;;2.93;94.08
75013;BME280;63567;49.956;20.130;2024-01-27T12:46:40;97727.47;;;2.92;94.19
75013;BME280;63567;49.956;20.130;2024-01-27T12:49:05;97723.81;;;2.95;94.46
75013;BME280;63567;49.956;20.130;2024-01-27T12:51:30;97711.88;;;2.92;94.43
75013;BME280;63567;49.956;20.130;2024-01-27T12:53:56;97713.53;;;2.93;95.00